map of TEX home
TEX - Airport
Location
City:  Telluride, Colorado, United States
Name:Telluride Regional
ICAO:KTEX
IATA:TEX
FAA LID:TEX

Details
Type:Airport (Part 139 Class I)
Use:Public/Civil
Latitude:3757'14"N (37.953806)
Longitude:10754'31"W (-107.908749)
Datum:WGS 1984
Elevation:9069 ft (2764 m)
Variation:9.31E (WMM2015v2 magnetic declination)
-0.09 annual change
Runways:1
Longest:7111 × 100 ft (2167 × 30.5 m), paved

Weather
METAR:KTEX 041415Z AUTO 18010G18KT 10SM SCT050 01/M07 A2987 RMK AO2
TAF:KTEX 041243Z 0413/0512 20006KT P6SM VCSH SCT015 BKN030
FM041600 18014G26KT P6SM VCSH SCT020 BKN045
FM042200 18011G20KT P6SM VCSH SCT015 OVC030

Related Locations
Nearby:
Farthest:RRG: 11073 mi / 17821 km
Plaine Corail [Sir Gatan Duval Airport (Plaine Corail Airport)], Rodrigues Island, MU

Find:

   beyond  
but within

Other Information
Maps:
NOTAMs:
Links:
Sources:

  
  • flag of United States
  • flag of Colorado
  

Airport Diagram

Airport diagram for TEX

Airport diagram PDF from FAA

Sectional Chart

Flight Planning
at skyvector.com

Satellite Image

Google Maps Satellite view

 

Copyright © 2004-2019 Karl L. Swartz. All rights reserved.
The Great Circle Mapper name and logo are trademarks of the Great Circle Mapper.
All other trademarks mentioned herein belong to their respective owners.
Please see credits for attibutions and further copyright information.

  Follow gcmap on Facebook Follow gcmap on Twitter GCmap on LinkedIn

hCard Microformat

Geo Microformat